Kennesaw, GA (30152)

2:24 PM EDT on May 28, 2015 (GMT -0400)
Victoria Falls | | Change Station
CLOSE
Current Station
Personal Weather Station
Location: Acworth, GA
Elevation: 957 ft
Nearby Weather Stations
Active Advisory: Special Statement

Elev 957 ft 33.98 °N, 84.73 °W | Updated 2 minutes ago

Overcast
Overcast
83.1 °F
Feels Like 89 °F
N
0.0
Wind Variable Wind from SSW
Gusts 0.0 mph

Today
High -- | Low -- °F
--% Chance of Precip.
Yesterday
High -- | Low -- °F
Precip. -- in
6:30 AM 8:42 PM
Waxing Gibbous, 77% visible
Pressure 30.21 in
Visibility 10.0 miles
Clouds Mostly Cloudy 3100 ft
Mostly Cloudy 6500 ft
Heat Index 89 °F
Dew Point 72 °F
Humidity 70%
Rainfall 0.46 in
Snow Depth Not available.
UV 1.2 out of 12
Pollen 4.20 out of 12
Air Quality Not available.
Flu Activity Sporadic
METAR KRYY 281747Z 17005KT 10SM BKN031 BKN065 27/20 A3021

More Conditions Fewer Conditions

Pressure 30.21 in
Visibility 10.0 miles
Clouds Mostly Cloudy 3100 ft
Mostly Cloudy 6500 ft
Heat Index 89 °F
Dew Point 72 °F
Humidity 70%
Rainfall 0.46 in
Snow Depth Not available.
UV 1.2 out of 12
Pollen 4.20 out of 12
Air Quality Not available.
Flu Activity Sporadic
METAR KRYY 281747Z 17005KT 10SM BKN031 BKN065 27/20 A3021

More Conditions Fewer Conditions

10-Day Weather Forecast

Almanac

Astronomy

May. 28, 2015 Rise Set
Actual Time
Civil Twilight
Nautical Twilight
Astronomical Twilight
Moon
Length of Visible Light
Length of Day
Tomorrow will be .
, % of the Moon is Illuminated

Today's Extremes

State Highs State Lows

Community

WunderPhotos

Upload Photos

1,825,009 photos uploaded!

WunderBlogs® & News

Nearby

Air Quality

  Air Quality AQ Index Pollutant
Not available.

Snow Depth

Station Depth Elevation

Earthquake Activity

City Distance Mag. Time & Date
Minimum magnitude displayed is 2.5.

Coastal Water Temperatures

Place Temperature

Stations

Nearby Weather Stations

Station Location Temp. Windchill Dew Point Humidity Wind Precip. Elev Updated Type
                   
Special Statement
Statement as of 2:17 PM EDT on May 28, 2015

... Significant weather advisory for dime sized hail and 35 mph winds
in western Cobb County until 245 PM EDT...

At 216 PM EDT... National Weather Service Doppler radar indicated a
strong thunderstorm centered near Powder Springs... or 8 miles
southwest of Marietta... moving north at 10 mph.

These storms have the potential to produce dime sized sized hail...
frequent cloud to ground lightning... wind gusts to 35 mph and very
heavy rainfall as they move across Cobb County through 245 PM EDT.

Some locations in the path of these storms include Powder
Springs... Austell... Lithia Springs... due west... Lost Mountain Park
and Mableton.

Lat... Lon 3398 8467 3383 8459 3380 8466 3381 8467
      3381 8472 3393 8473 3395 8472 3395 8473
time... Mot... loc 1816z 164deg 12kt 3387 8466